Time;durP1;ratioP1;P1;durP2;ratioP2;P2;SDS_P1;SDS_P2;PMS_P1;PMS_P2;Temp;Humidity;BMP_temperature;BMP_pressure;BME280_temperature;BME280_humidity;BME280_pressure;Samples;Min_cycle;Max_cycle;Signal;HPM_P1;HPM_P2
2022/12/21 00:01:17;;;;;;;20.23;17.13;;;;;;;9.68;91.80;100695.13;5114201;28;20181;-70
2022/12/21 00:03:45;;;;;;;22.43;18.20;;;;;;;9.72;91.48;100693.06;5114172;28;20185;-70
2022/12/21 00:06:12;;;;;;;22.87;17.63;;;;;;;9.77;91.38;100693.66;5114533;28;20201;-70
2022/12/21 00:08:44;;;;;;;24.03;17.90;;;;;;;9.74;91.42;100693.84;5114703;28;20257;-70
2022/12/21 00:11:12;;;;;;;26.07;18.77;;;;;;;9.70;91.42;100681.66;5114653;28;20249;-70
2022/12/21 00:13:41;;;;;;;26.37;18.23;;;;;;;9.69;91.45;100687.94;5114311;28;20173;-70
2022/12/21 00:16:17;;;;;;;27.20;18.07;;;;;;;9.71;91.47;100678.00;5113897;28;20299;-70
2022/12/21 00:18:44;;;;;;;20.23;17.30;;;;;;;9.68;91.46;100684.44;5114241;28;20180;-70
2022/12/21 00:21:16;;;;;;;26.23;18.07;;;;;;;9.65;91.53;100681.97;5113770;28;20204;-70
2022/12/21 00:23:44;;;;;;;29.33;18.50;;;;;;;9.66;91.50;100681.00;5114461;28;20182;-70
2022/12/21 00:26:12;;;;;;;23.87;18.27;;;;;;;9.69;91.67;100682.59;5113661;28;20698;-70
2022/12/21 00:28:39;;;;;;;24.03;17.03;;;;;;;9.68;91.86;100688.94;5095830;28;20604;-70
2022/12/21 00:31:11;;;;;;;24.00;18.27;;;;;;;9.66;91.53;100689.03;5113763;28;20189;-70
2022/12/21 00:33:39;;;;;;;23.23;17.10;;;;;;;9.63;91.74;100694.59;5114130;28;20169;-70
2022/12/21 00:36:07;;;;;;;28.10;17.70;;;;;;;9.62;91.54;100690.19;5113765;28;20661;-70
2022/12/21 00:38:34;;;;;;;21.37;16.97;;;;;;;9.66;91.74;100697.03;5114271;28;20177;-70
2022/12/21 00:41:03;;;;;;;28.00;17.83;;;;;;;9.62;91.52;100700.88;5095729;28;20591;-70
2022/12/21 00:43:32;;;;;;;25.70;17.87;;;;;;;9.65;91.85;100698.00;5095496;28;20217;-70
2022/12/21 00:45:59;;;;;;;28.67;17.97;;;;;;;9.67;91.70;100689.88;5114078;28;20209;-70
2022/12/21 00:48:27;;;;;;;25.17;18.57;;;;;;;9.61;91.67;100683.13;5113846;28;20268;-70
2022/12/21 00:50:53;;;;;;;23.03;17.70;;;;;;;9.60;91.87;100686.78;5113566;28;20185;-70
2022/12/21 00:53:20;;;;;;;22.90;17.97;;;;;;;9.54;92.04;100681.84;5113572;28;20199;-70
2022/12/21 00:55:55;;;;;;;24.23;17.93;;;;;;;9.61;91.56;100685.81;5113496;28;20201;-70
2022/12/21 00:58:23;;;;;;;31.07;18.87;;;;;;;9.54;91.84;100696.06;5113812;28;20169;-70
2022/12/21 01:00:54;;;;;;;23.63;17.70;;;;;;;9.56;91.64;100693.28;5113497;28;20558;-70
2022/12/21 01:03:22;;;;;;;24.77;17.80;;;;;;;9.56;92.00;100702.16;5113792;28;20172;-70
2022/12/21 01:05:50;;;;;;;26.37;17.57;;;;;;;9.60;91.83;100702.81;5112105;28;20709;-70
2022/12/21 01:08:18;;;;;;;25.27;17.43;;;;;;;9.57;91.54;100693.16;5117914;28;20264;-70
2022/12/21 01:10:45;;;;;;;22.57;17.43;;;;;;;9.56;91.93;100686.13;5117535;28;20557;-70
2022/12/21 01:13:12;;;;;;;30.77;16.17;;;;;;;9.52;91.92;100700.66;5099137;28;20201;-70
2022/12/21 01:15:41;;;;;;;25.27;17.93;;;;;;;9.52;91.95;100705.16;5117338;28;20205;-70
2022/12/21 01:18:08;;;;;;;24.67;17.47;;;;;;;9.47;92.29;100704.59;5099087;28;20197;-70
2022/12/21 01:20:40;;;;;;;23.13;17.27;;;;;;;9.49;92.26;100697.34;5099217;28;20197;-70
2022/12/21 01:23:07;;;;;;;24.80;18.37;;;;;;;9.48;92.11;100698.28;5117833;28;20257;-70
2022/12/21 01:25:35;;;;;;;27.10;16.20;;;;;;;9.50;92.26;100691.88;5117271;28;20272;-70
2022/12/21 01:28:02;;;;;;;25.10;17.00;;;;;;;9.52;91.75;100699.78;5117194;28;20190;-70
2022/12/21 01:30:29;;;;;;;28.43;16.63;;;;;;;9.50;92.16;100704.38;5115900;28;20283;-70
2022/12/21 01:32:55;;;;;;;25.73;17.77;;;;;;;9.52;91.91;100713.16;5098866;28;20552;-70
2022/12/21 01:35:22;;;;;;;24.60;17.73;;;;;;;9.48;92.06;100717.00;5117519;28;20235;-70
2022/12/21 01:37:48;;;;;;;23.43;17.50;;;;;;;9.48;92.12;100708.97;5117002;28;20188;-70
2022/12/21 01:40:14;;;;;;;24.27;17.70;;;;;;;9.43;92.21;100713.78;5098694;28;20288;-70
2022/12/21 01:42:41;;;;;;;25.60;18.23;;;;;;;9.41;92.30;100708.56;5117698;28;20541;-70
2022/12/21 01:45:29;;;;;;;25.40;18.67;;;;;;;9.42;92.16;100718.28;5116983;28;20197;-70
2022/12/21 01:48:03;;;;;;;24.37;17.27;;;;;;;9.34;92.43;100720.63;5117426;28;20256;-70
2022/12/21 01:50:34;;;;;;;31.70;18.17;;;;;;;9.40;91.89;100722.00;5098531;28;20185;-70
2022/12/21 01:53:07;;;;;;;28.10;18.07;;;;;;;9.37;92.33;100731.09;5116649;28;20189;-70
2022/12/21 01:55:35;;;;;;;26.10;18.23;;;;;;;9.37;92.84;100729.28;5116621;28;20683;-70
2022/12/21 01:58:04;;;;;;;29.87;19.60;;;;;;;9.43;92.34;100724.47;5098280;28;20358;-70
2022/12/21 02:00:30;;;;;;;31.97;18.70;;;;;;;9.41;92.26;100729.06;5116549;28;20268;-70
2022/12/21 02:03:00;;;;;;;33.13;19.77;;;;;;;9.41;92.36;100719.25;5116808;28;20169;-70
2022/12/21 02:05:33;;;;;;;37.60;19.37;;;;;;;9.39;92.44;100710.47;5116396;28;20209;-70
2022/12/21 02:08:02;;;;;;;33.70;18.40;;;;;;;9.41;92.59;100710.34;5116324;28;20193;-70
2022/12/21 02:10:29;;;;;;;39.27;19.53;;;;;;;9.33;92.60;100714.41;5115121;28;20193;-70
2022/12/21 02:13:00;;;;;;;28.67;18.30;;;;;;;9.34;92.43;100718.81;5098029;28;20547;-70
2022/12/21 02:15:50;;;;;;;31.17;19.53;;;;;;;9.30;92.74;100716.44;5116182;28;20211;-70
2022/12/21 02:18:38;;;;;;;32.90;18.60;;;;;;;9.34;92.81;100720.63;5103037;28;20205;-70
2022/12/21 02:21:13;;;;;;;37.27;19.83;;;;;;;9.31;92.49;100713.66;5116193;28;20199;-70
2022/12/21 02:23:48;;;;;;;30.07;18.87;;;;;;;9.32;92.53;100720.72;5097854;28;20192;-70
2022/12/21 02:26:25;;;;;;;30.43;18.17;;;;;;;9.28;92.12;100715.69;5097929;28;20659;-70
2022/12/21 02:29:11;;;;;;;31.63;17.90;;;;;;;9.32;92.20;100717.19;5097790;28;20185;-70
2022/12/21 02:31:49;;;;;;;32.07;18.30;;;;;;;9.34;92.31;100715.28;5116534;28;20201;-70
2022/12/21 02:34:43;;;;;;;30.77;16.23;;;;;;;9.30;92.13;100717.28;5116487;28;20169;-70
2022/12/21 02:37:28;;;;;;;24.97;17.00;;;;;;;9.27;92.25;100708.63;5097657;28;20185;-70
2022/12/21 02:40:00;;;;;;;33.57;17.53;;;;;;;9.27;92.39;100701.47;5115764;28;20184;-70
2022/12/21 02:45:37;;;;;;;32.27;17.37;;;;;;;9.27;91.60;100712.16;5097379;28;20221;-70
2022/12/21 02:48:16;;;;;;;31.03;17.57;;;;;;;9.20;92.24;100704.66;5097311;28;20686;-70
2022/12/21 02:50:49;;;;;;;25.40;17.10;;;;;;;9.18;92.00;100715.44;5097372;28;20654;-70
2022/12/21 02:53:21;;;;;;;38.57;16.37;;;;;;;9.14;92.19;100714.75;5115861;28;20169;-70
2022/12/21 02:55:48;;;;;;;24.20;15.93;;;;;;;9.18;92.38;100710.09;5115794;28;20293;-70
2022/12/21 02:58:20;;;;;;;30.60;17.33;;;;;;;9.17;92.35;100713.72;5115673;28;20272;-70
2022/12/21 03:01:06;;;;;;;29.27;17.37;;;;;;;9.15;92.35;100719.16;5097169;28;20174;-70
2022/12/21 03:03:48;;;;;;;31.30;16.20;;;;;;;9.15;91.78;100719.16;5115632;28;20212;-70
2022/12/21 03:06:28;;;;;;;34.80;18.63;;;;;;;9.17;92.27;100719.06;5097033;28;20262;-70
2022/12/21 03:09:13;;;;;;;37.20;18.43;;;;;;;9.20;92.28;100718.84;5096976;28;20196;-70
2022/12/21 03:12:06;;;;;;;37.30;18.27;;;;;;;9.20;92.31;100724.22;5097237;28;20197;-70
2022/12/21 03:14:47;;;;;;;35.83;18.27;;;;;;;9.28;92.14;100721.88;5096796;28;20724;-70
2022/12/21 03:17:32;;;;;;;35.43;19.33;;;;;;;9.19;92.01;100718.94;5096854;28;20268;-70
2022/12/21 03:20:23;;;;;;;42.20;20.33;;;;;;;9.20;92.13;100721.53;5096683;28;20689;-70
2022/12/21 03:22:57;;;;;;;53.50;23.17;;;;;;;9.16;92.56;100718.19;5097292;28;20189;-70
2022/12/21 03:25:44;;;;;;;50.93;22.30;;;;;;;9.14;92.80;100708.56;5096610;28;20213;-70
2022/12/21 03:28:19;;;;;;;46.40;22.23;;;;;;;9.16;92.30;100703.97;5115049;28;20197;-70
2022/12/21 03:30:51;;;;;;;54.43;21.73;;;;;;;9.11;92.56;100709.63;5115137;28;20169;-70
2022/12/21 03:33:22;;;;;;;55.13;22.77;;;;;;;9.16;92.66;100709.31;5115073;28;20174;-70
2022/12/21 03:35:54;;;;;;;58.53;23.73;;;;;;;9.08;93.12;100704.50;5115343;28;20215;-70
2022/12/21 03:38:26;;;;;;;56.70;22.60;;;;;;;9.19;92.32;100703.78;5114944;28;20646;-70
2022/12/21 03:40:57;;;;;;;59.83;22.70;;;;;;;9.11;92.42;100698.94;5115185;28;20166;-70
2022/12/21 03:43:29;;;;;;;54.13;21.37;;;;;;;9.11;92.78;100696.28;5114567;28;20177;-70
2022/12/21 03:46:03;;;;;;;51.00;22.50;;;;;;;9.10;92.63;100693.72;5114791;28;20769;-70
2022/12/21 03:48:39;;;;;;;50.63;22.17;;;;;;;9.08;92.49;100684.94;5114742;28;20612;-70
2022/12/21 03:51:15;;;;;;;47.40;21.43;;;;;;;9.10;92.80;100691.06;5114733;28;20169;-70
2022/12/21 03:53:50;;;;;;;52.83;22.53;;;;;;;9.14;92.63;100681.84;5114920;28;20183;-70
2022/12/21 03:56:25;;;;;;;49.80;21.97;;;;;;;9.07;92.86;100678.72;5114282;28;20262;-70
2022/12/21 03:58:51;;;;;;;57.73;23.73;;;;;;;9.09;92.83;100673.28;5114295;28;20173;-70
2022/12/21 04:01:31;;;;;;;57.37;22.80;;;;;;;9.16;92.60;100675.44;5114230;28;20652;-70
2022/12/21 04:04:05;;;;;;;69.90;23.77;;;;;;;9.15;92.91;100667.56;5115770;28;20590;-70
2022/12/21 04:06:34;;;;;;;45.70;20.47;;;;;;;9.19;92.54;100669.03;5114544;28;20607;-70
2022/12/21 04:09:04;;;;;;;54.77;20.77;;;;;;;9.19;92.21;100678.88;5115032;28;20193;-70
2022/12/21 04:14:20;;;;;;;41.97;18.70;;;;;;;9.10;92.74;100665.19;5114366;28;20165;-70
2022/12/21 04:16:47;;;;;;;34.87;18.40;;;;;;;9.10;92.59;100667.84;5114223;28;20569;-70
2022/12/21 04:22:03;;;;;;;30.93;16.47;;;;;;;9.16;92.56;100667.44;5113913;28;20201;-70
2022/12/21 04:30:00;;;;;;;38.73;18.33;;;;;;;9.19;92.37;100661.00;5113784;28;20173;-70
2022/12/21 04:32:26;;;;;;;40.67;18.53;;;;;;;9.17;92.19;100652.28;5113817;28;20181;-70
2022/12/21 04:34:52;;;;;;;36.67;18.00;;;;;;;9.15;92.39;100652.38;5113694;28;20560;-70
2022/12/21 04:37:31;;;;;;;36.27;18.27;;;;;;;9.14;92.22;100653.31;5113751;28;20181;-70
2022/12/21 04:39:58;;;;;;;35.00;17.63;;;;;;;9.14;92.12;100655.13;5114356;28;20534;-70
2022/12/21 04:42:25;;;;;;;40.87;19.23;;;;;;;9.14;92.16;100657.81;5113555;28;20192;-70
2022/12/21 04:44:51;;;;;;;31.27;18.57;;;;;;;9.11;92.01;100650.00;5114099;28;20220;-70
2022/12/21 04:47:18;;;;;;;32.83;16.30;;;;;;;9.06;92.41;100649.47;5113598;28;20212;-70
2022/12/21 04:49:45;;;;;;;28.93;16.23;;;;;;;9.03;92.11;100649.66;5113656;28;20590;-70
2022/12/21 04:52:12;;;;;;;31.80;17.17;;;;;;;9.00;92.42;100644.50;5113558;28;20185;-70
2022/12/21 04:54:38;;;;;;;28.03;16.50;;;;;;;9.03;92.75;100630.97;5113824;28;20267;-70
2022/12/21 04:57:04;;;;;;;36.97;16.70;;;;;;;9.04;92.91;100635.34;5114095;28;20188;-70
2022/12/21 04:59:31;;;;;;;32.00;16.73;;;;;;;9.04;92.63;100643.34;5114076;28;20191;-70
2022/12/21 05:01:57;;;;;;;34.10;18.77;;;;;;;9.01;92.84;100644.41;5113463;28;20200;-70
2022/12/21 05:04:24;;;;;;;33.00;18.03;;;;;;;9.09;92.89;100651.91;5113479;28;20193;-70
2022/12/21 05:06:50;;;;;;;31.83;16.70;;;;;;;9.10;92.58;100646.47;5113372;28;20215;-70
2022/12/21 05:09:17;;;;;;;37.63;19.60;;;;;;;9.09;92.64;100646.56;5113700;28;20185;-70
2022/12/21 05:11:44;;;;;;;31.13;19.07;;;;;;;9.10;92.31;100649.16;5113374;28;20180;-70
2022/12/21 05:14:11;;;;;;;33.77;18.60;;;;;;;9.08;92.83;100655.56;5113339;28;20199;-70
2022/12/21 05:16:40;;;;;;;30.27;17.63;;;;;;;9.09;92.82;100651.91;5113304;28;20204;-70
2022/12/21 05:19:06;;;;;;;30.73;17.53;;;;;;;9.07;92.48;100651.16;5113299;28;20185;-70
2022/12/21 05:21:33;;;;;;;31.13;17.07;;;;;;;9.05;92.53;100650.41;5113402;28;20197;-70
2022/12/21 05:23:59;;;;;;;35.17;17.77;;;;;;;9.05;92.56;100659.28;5113533;28;20189;-70
2022/12/21 05:26:26;;;;;;;29.23;15.90;;;;;;;9.09;92.50;100651.91;5113418;28;20244;-70
2022/12/21 05:28:52;;;;;;;32.37;15.30;;;;;;;9.10;92.58;100659.84;5113539;28;20177;-70
2022/12/21 05:31:19;;;;;;;29.30;15.33;;;;;;;9.08;92.64;100651.06;5113297;28;20185;-70
2022/12/21 05:33:45;;;;;;;29.27;13.80;;;;;;;9.08;92.49;100653.75;5113452;28;20189;-70
2022/12/21 05:36:14;;;;;;;28.57;14.93;;;;;;;9.10;92.54;100656.31;5113405;28;20209;-70
2022/12/21 05:38:41;;;;;;;23.33;13.20;;;;;;;9.12;92.79;100652.59;5113759;28;20178;-70
2022/12/21 05:41:09;;;;;;;20.97;12.53;;;;;;;9.12;92.59;100657.03;5113619;28;20272;-70
2022/12/21 05:43:35;;;;;;;20.97;11.40;;;;;;;9.16;92.37;100650.53;5113635;28;20265;-70
2022/12/21 05:46:04;;;;;;;17.40;10.37;;;;;;;9.18;92.67;100647.78;5113532;28;20223;-70
2022/12/21 05:48:31;;;;;;;15.50;9.67;;;;;;;9.20;92.62;100651.22;5113000;28;20197;-70
2022/12/21 05:50:58;;;;;;;12.23;9.67;;;;;;;9.19;92.47;100657.50;5113027;28;20196;-70
2022/12/21 05:53:24;;;;;;;13.37;9.73;;;;;;;9.15;92.34;100656.88;5114023;28;20185;-70
2022/12/21 05:55:51;;;;;;;23.73;11.50;;;;;;;9.08;92.62;100648.38;5116568;28;20207;-70
2022/12/21 05:58:18;;;;;;;23.43;12.93;;;;;;;9.11;92.37;100648.19;5117053;28;20174;-70
2022/12/21 06:00:45;;;;;;;29.73;15.70;;;;;;;9.12;92.21;100643.69;5117070;28;20187;-70
2022/12/21 06:03:12;;;;;;;31.37;15.60;;;;;;;9.00;92.61;100652.53;5117059;28;20215;-70
2022/12/21 06:05:38;;;;;;;27.63;14.20;;;;;;;8.98;92.59;100657.09;5116648;28;20197;-70
2022/12/21 06:08:05;;;;;;;25.63;14.47;;;;;;;8.96;92.64;100651.88;5116326;28;20217;-70
2022/12/21 06:10:31;;;;;;;26.00;14.70;;;;;;;8.89;92.63;100653.25;5116631;28;20219;-70
2022/12/21 06:12:57;;;;;;;34.00;15.07;;;;;;;8.87;93.10;100656.00;5116243;28;20200;-70
2022/12/21 06:15:24;;;;;;;32.83;14.90;;;;;;;8.82;92.90;100654.63;5116207;28;20201;-70
2022/12/21 06:17:50;;;;;;;32.33;14.93;;;;;;;8.83;92.93;100643.81;5098726;28;20185;-70
2022/12/21 06:20:17;;;;;;;36.33;15.93;;;;;;;8.85;93.09;100649.91;5097738;28;20614;-70
2022/12/21 06:22:44;;;;;;;41.20;16.47;;;;;;;8.84;92.81;100653.56;5116171;28;20174;-70
2022/12/21 06:25:10;;;;;;;37.53;17.80;;;;;;;8.85;92.75;100651.72;5116011;28;20201;-70
2022/12/21 06:27:37;;;;;;;38.63;17.80;;;;;;;8.85;92.40;100644.56;5116210;28;20205;-70
2022/12/21 06:30:04;;;;;;;35.87;16.97;;;;;;;8.82;92.59;100646.59;5115983;28;20276;-70
2022/12/21 06:32:30;;;;;;;45.70;17.87;;;;;;;8.78;92.44;100642.41;5115919;28;20217;-70
2022/12/21 06:34:56;;;;;;;38.23;16.57;;;;;;;8.73;92.39;100650.72;5115827;28;20185;-70
2022/12/21 06:37:23;;;;;;;43.80;18.47;;;;;;;8.75;93.05;100658.63;5115867;28;20734;-70
2022/12/21 06:39:49;;;;;;;42.90;18.87;;;;;;;8.76;92.87;100652.34;5115803;28;20212;-70
2022/12/21 06:42:16;;;;;;;46.23;17.93;;;;;;;8.73;92.73;100658.72;5115707;28;20182;-70
2022/12/21 06:44:42;;;;;;;42.40;19.53;;;;;;;8.71;92.69;100653.50;5080627;28;20228;-70
2022/12/21 06:47:08;;;;;;;47.77;19.33;;;;;;;8.67;92.58;100651.13;5115612;28;20201;-70
2022/12/21 06:49:35;;;;;;;47.47;19.77;;;;;;;8.73;92.63;100650.72;5115457;28;20211;-70
2022/12/21 06:52:01;;;;;;;56.63;19.63;;;;;;;8.65;92.35;100648.56;5115491;28;20189;-70
2022/12/21 06:54:27;;;;;;;53.90;20.50;;;;;;;8.64;92.72;100645.97;5115435;28;20193;-70
2022/12/21 06:56:54;;;;;;;48.53;17.63;;;;;;;8.61;92.57;100644.38;5115640;28;20213;-70
2022/12/21 06:59:21;;;;;;;40.57;18.80;;;;;;;8.65;92.53;100647.72;5115236;28;20607;-70
2022/12/21 07:01:47;;;;;;;39.20;18.20;;;;;;;8.60;92.80;100644.47;5115567;28;20182;-70
2022/12/21 07:04:14;;;;;;;39.67;17.40;;;;;;;8.59;92.85;100648.94;5115165;28;20205;-70
2022/12/21 07:06:41;;;;;;;35.63;16.43;;;;;;;8.59;92.91;100648.94;5115184;28;20216;-70
2022/12/21 07:09:07;;;;;;;45.30;18.20;;;;;;;8.60;93.15;100657.84;5115117;28;20296;-70
2022/12/21 07:11:34;;;;;;;33.93;15.30;;;;;;;8.55;93.26;100660.78;5115733;28;20185;-70
2022/12/21 07:14:00;;;;;;;39.17;17.80;;;;;;;8.54;92.69;100660.88;5115119;28;20213;-70
2022/12/21 07:16:27;;;;;;;35.63;17.67;;;;;;;8.53;93.07;100657.38;5114958;28;20289;-70
2022/12/21 07:18:53;;;;;;;37.57;17.30;;;;;;;8.50;93.28;100668.25;5115561;28;20181;-70
2022/12/21 07:21:21;;;;;;;40.90;18.77;;;;;;;8.53;93.37;100654.69;5115050;28;20199;-70
2022/12/21 07:23:48;;;;;;;32.70;16.20;;;;;;;8.54;93.29;100656.41;5115240;28;20524;-70
2022/12/21 07:26:18;;;;;;;33.53;15.67;;;;;;;8.56;93.03;100649.16;5114926;28;20226;-70
2022/12/21 07:28:45;;;;;;;38.13;16.33;;;;;;;8.53;93.08;100652.03;5114723;28;20300;-70
2022/12/21 07:31:15;;;;;;;38.93;16.80;;;;;;;8.54;93.21;100653.72;5115153;28;20663;-70
2022/12/21 07:33:42;;;;;;;39.70;18.50;;;;;;;8.54;93.15;100658.22;5115108;28;20166;-70
2022/12/21 07:36:09;;;;;;;37.23;16.97;;;;;;;8.57;92.79;100655.34;5115141;28;20231;-70
2022/12/21 07:38:37;;;;;;;33.43;15.77;;;;;;;8.56;92.82;100659.81;5115250;28;20180;-70
2022/12/21 07:41:07;;;;;;;37.03;16.07;;;;;;;8.56;93.09;100653.63;5114507;28;20535;-70
2022/12/21 07:43:34;;;;;;;31.27;15.53;;;;;;;8.55;93.38;100657.25;5114561;28;20193;-70
2022/12/21 07:46:12;;;;;;;38.50;16.60;;;;;;;8.55;92.54;100651.91;5096307;28;20690;-70
2022/12/21 07:48:38;;;;;;;45.23;19.43;;;;;;;8.57;92.64;100671.34;5114668;28;20209;-70
2022/12/21 07:51:05;;;;;;;40.03;17.57;;;;;;;8.56;92.45;100681.19;5114977;28;20224;-70
2022/12/21 07:53:33;;;;;;;37.97;18.27;;;;;;;8.54;91.94;100684.91;5114401;28;20195;-70
2022/12/21 07:56:02;;;;;;;49.97;19.33;;;;;;;8.50;92.17;100694.94;5114532;28;20261;-70
2022/12/21 07:58:28;;;;;;;46.17;19.47;;;;;;;8.41;92.25;100701.69;5114768;28;20178;-70
2022/12/21 08:00:55;;;;;;;42.90;17.37;;;;;;;8.36;92.25;100690.44;5114065;28;20655;-69
2022/12/21 08:03:27;;;;;;;40.87;18.97;;;;;;;8.36;92.33;100685.09;5114798;28;20569;-70
2022/12/21 08:05:54;;;;;;;32.90;15.37;;;;;;;8.30;92.28;100696.16;5114095;28;20205;-70
2022/12/21 08:08:20;;;;;;;37.23;15.60;;;;;;;8.33;92.47;100698.59;5114345;28;20215;-70
2022/12/21 08:10:47;;;;;;;33.40;14.47;;;;;;;8.26;92.62;100690.16;5114076;28;20280;-70
2022/12/21 08:13:13;;;;;;;36.87;14.43;;;;;;;8.26;91.73;100694.63;5113986;28;20185;-70
2022/12/21 08:15:40;;;;;;;37.43;15.10;;;;;;;8.26;92.22;100697.28;5113938;28;20205;-70
2022/12/21 08:18:06;;;;;;;31.77;13.53;;;;;;;8.24;91.84;100693.88;5113729;28;20177;-70
2022/12/21 08:20:36;;;;;;;38.37;14.73;;;;;;;8.19;91.89;100702.16;5113883;28;20236;-70
2022/12/21 08:23:02;;;;;;;35.43;14.97;;;;;;;8.15;92.02;100697.13;5114179;28;20185;-70
2022/12/21 08:25:29;;;;;;;35.63;15.97;;;;;;;8.10;92.07;100698.25;5114022;28;20213;-70
2022/12/21 08:27:56;;;;;;;37.50;17.63;;;;;;;8.13;92.00;100707.03;5113790;28;20201;-70
2022/12/21 08:30:22;;;;;;;42.83;16.27;;;;;;;8.10;92.40;100705.41;5113833;28;20197;-70
2022/12/21 08:32:49;;;;;;;30.77;14.67;;;;;;;8.12;92.63;100703.50;5113732;28;20654;-70
2022/12/21 08:35:15;;;;;;;37.83;15.90;;;;;;;8.09;92.57;100706.34;5113684;28;20292;-70
2022/12/21 08:37:42;;;;;;;37.77;15.33;;;;;;;8.10;92.55;100708.91;5113705;28;20177;-70
2022/12/21 08:40:09;;;;;;;31.33;14.93;;;;;;;8.07;92.70;100695.78;5114035;28;20188;-70
2022/12/21 08:42:35;;;;;;;39.03;15.57;;;;;;;8.10;92.94;100697.41;5113943;28;20208;-70
2022/12/21 08:45:01;;;;;;;32.80;14.40;;;;;;;8.13;92.53;100688.34;5114037;28;20262;-70
2022/12/21 08:47:28;;;;;;;34.43;14.70;;;;;;;8.18;92.31;100694.25;5114433;28;20224;-70
2022/12/21 08:49:54;;;;;;;31.17;14.07;;;;;;;8.15;92.24;100707.78;5113978;28;20272;-70
2022/12/21 08:52:21;;;;;;;32.40;15.67;;;;;;;8.09;92.10;100695.66;5095876;28;20208;-70
2022/12/21 08:54:47;;;;;;;35.03;14.13;;;;;;;8.09;91.96;100701.00;5113796;28;20689;-70
2022/12/21 08:57:13;;;;;;;28.07;14.33;;;;;;;8.14;92.42;100700.72;5113765;28;20191;-70
2022/12/21 08:59:40;;;;;;;28.80;13.63;;;;;;;8.06;92.53;100706.53;5113844;28;20166;-70
2022/12/21 09:02:13;;;;;;;29.17;12.90;;;;;;;8.12;92.31;100706.16;5113818;28;20174;-70
2022/12/21 09:04:40;;;;;;;31.43;11.93;;;;;;;8.07;92.08;100700.25;5113376;28;20185;-70
2022/12/21 09:07:07;;;;;;;28.97;13.23;;;;;;;8.01;92.32;100712.16;5113713;28;20180;-70
2022/12/21 09:09:33;;;;;;;27.33;12.93;;;;;;;8.00;92.40;100720.25;5113399;28;20246;-70
2022/12/21 09:12:00;;;;;;;34.00;13.23;;;;;;;7.94;92.41;100721.47;5113948;28;20181;-70
2022/12/21 09:14:27;;;;;;;38.63;12.37;;;;;;;7.94;92.68;100725.97;5113306;28;20610;-70
2022/12/21 09:16:54;;;;;;;30.77;11.47;;;;;;;7.94;92.49;100724.16;5113247;28;20209;-70
2022/12/21 09:19:21;;;;;;;26.93;11.97;;;;;;;7.97;92.56;100715.94;5113826;28;20643;-70
2022/12/21 09:21:47;;;;;;;25.10;11.97;;;;;;;7.96;92.31;100716.06;5113318;28;20203;-70
2022/12/21 09:24:13;;;;;;;30.73;11.27;;;;;;;7.94;92.28;100718.81;5113978;28;20216;-70
2022/12/21 09:26:41;;;;;;;23.57;13.03;;;;;;;7.97;92.26;100720.44;5113279;28;20209;-70
2022/12/21 09:29:09;;;;;;;36.07;12.73;;;;;;;8.00;92.47;100723.78;5117060;28;20189;-73
2022/12/21 09:31:36;;;;;;;37.83;12.77;;;;;;;8.05;92.59;100715.50;5117271;28;20290;-70
2022/12/21 09:34:02;;;;;;;34.30;12.63;;;;;;;8.07;92.51;100722.47;5117094;28;20196;-70
2022/12/21 09:36:29;;;;;;;32.13;13.37;;;;;;;8.10;92.47;100718.75;5117007;28;20258;-70
2022/12/21 09:38:56;;;;;;;35.30;12.40;;;;;;;8.14;92.15;100722.06;5116975;28;20622;-70
2022/12/21 09:41:29;;;;;;;38.83;15.30;;;;;;;8.09;91.55;100712.56;5116956;28;20733;-69
2022/12/21 09:44:20;;;;;;;39.13;14.20;;;;;;;8.07;91.96;100727.78;5116910;28;20174;-69
2022/12/21 09:46:51;;;;;;;39.80;15.47;;;;;;;8.07;92.17;100737.59;5116832;28;20208;-70
2022/12/21 09:49:21;;;;;;;39.43;14.90;;;;;;;8.07;92.66;100745.59;5116964;28;20197;-70
2022/12/21 09:51:57;;;;;;;35.00;14.17;;;;;;;8.08;92.25;100745.50;5117402;28;20177;-70
2022/12/21 09:54:35;;;;;;;37.00;15.07;;;;;;;8.10;92.07;100745.41;5117031;28;20177;-70
2022/12/21 09:57:05;;;;;;;34.00;13.83;;;;;;;8.06;92.83;100739.38;5117681;28;20213;-70
2022/12/21 09:59:32;;;;;;;36.53;14.53;;;;;;;8.12;92.44;100740.84;5116668;28;20339;-70
2022/12/21 10:02:32;;;;;;;40.13;15.63;;;;;;;8.10;92.75;100740.06;5117129;28;20181;-69
2022/12/21 10:05:19;;;;;;;49.50;15.37;;;;;;;8.13;92.79;100752.38;5116929;28;20687;-70
2022/12/21 10:07:59;;;;;;;36.63;15.90;;;;;;;8.22;92.67;100749.13;5116665;28;20165;-70
2022/12/21 10:10:38;;;;;;;35.83;15.53;;;;;;;8.21;92.57;100742.94;5116689;28;20547;-70
2022/12/21 10:13:40;;;;;;;34.30;15.20;;;;;;;8.24;92.45;100747.25;5116797;28;20227;-70
2022/12/21 10:16:20;;;;;;;40.10;16.07;;;;;;;8.25;92.57;100743.59;5116404;28;20232;-70
2022/12/21 10:19:31;;;;;;;52.93;18.63;;;;;;;8.25;91.92;100741.78;5116530;28;20235;-70
2022/12/21 10:22:13;;;;;;;51.43;18.57;;;;;;;8.26;92.24;100745.31;5116206;28;20223;-70
2022/12/21 10:24:53;;;;;;;51.43;20.77;;;;;;;8.29;92.44;100745.13;5117290;28;20667;-70
2022/12/21 10:27:21;;;;;;;57.77;20.93;;;;;;;8.33;92.16;100741.31;5116662;28;20599;-70
2022/12/21 10:29:56;;;;;;;60.23;23.10;;;;;;;8.36;92.71;100738.47;5115900;28;20204;-70
2022/12/21 10:32:28;;;;;;;61.17;23.43;;;;;;;8.46;92.23;100739.63;5116258;28;20181;-70
2022/12/21 10:35:27;;;;;;;56.47;23.43;;;;;;;8.56;92.18;100747.06;5116526;28;20201;-70
2022/12/21 10:37:55;;;;;;;61.70;23.03;;;;;;;8.57;91.67;100748.75;5116071;28;20181;-70
2022/12/21 10:40:26;;;;;;;62.53;23.70;;;;;;;8.49;91.76;100759.94;5115126;28;20204;-70
2022/12/21 10:42:53;;;;;;;50.43;22.17;;;;;;;8.60;91.54;100759.28;5115794;28;20540;-70
2022/12/21 10:45:22;;;;;;;49.43;21.23;;;;;;;8.51;91.40;100760.69;5115696;28;20213;-70
2022/12/21 10:47:53;;;;;;;54.17;21.30;;;;;;;8.49;91.74;100758.09;5115652;28;20211;-70
2022/12/21 10:50:32;;;;;;;52.53;21.47;;;;;;;8.43;91.58;100755.84;5115641;28;20643;-70
2022/12/21 10:53:15;;;;;;;45.77;20.40;;;;;;;8.40;90.01;100756.00;5116415;28;20181;-70
2022/12/21 10:55:43;;;;;;;59.00;20.50;;;;;;;8.31;90.38;100754.75;5115508;28;20216;-70
2022/12/21 10:58:10;;;;;;;58.00;19.70;;;;;;;8.31;90.39;100756.56;5115964;28;20193;-70
2022/12/21 11:00:47;;;;;;;42.00;17.50;;;;;;;8.20;89.51;100754.56;5115931;28;20185;-70
2022/12/21 11:03:28;;;;;;;44.70;16.67;;;;;;;8.10;89.29;100751.59;5115350;28;20177;-70
2022/12/21 11:05:55;;;;;;;36.90;17.07;;;;;;;8.09;89.09;100741.91;5115254;28;20691;-70
2022/12/21 11:08:25;;;;;;;44.63;16.63;;;;;;;8.11;88.68;100731.09;5115535;28;20663;-70
2022/12/21 11:10:58;;;;;;;41.30;15.93;;;;;;;8.18;88.89;100727.13;5115708;28;20178;-70
2022/12/21 11:13:27;;;;;;;35.93;16.03;;;;;;;8.21;88.48;100726.06;5115373;28;20177;-70
2022/12/21 11:16:12;;;;;;;37.93;14.33;;;;;;;8.26;87.68;100731.97;5097007;28;20581;-70
2022/12/21 11:18:45;;;;;;;25.53;12.87;;;;;;;8.27;86.63;100728.38;5115298;28;20252;-70
2022/12/21 11:21:12;;;;;;;28.17;12.73;;;;;;;8.18;86.36;100727.13;5115569;28;20185;-70
2022/12/21 11:23:38;;;;;;;37.27;14.00;;;;;;;8.18;86.71;100726.25;5114975;28;20647;-70
2022/12/21 11:26:15;;;;;;;21.70;11.33;;;;;;;8.16;86.53;100725.50;5114835;28;20204;-70
2022/12/21 11:28:42;;;;;;;22.67;12.03;;;;;;;8.21;86.66;100726.94;5114833;28;20285;-70
2022/12/21 11:31:08;;;;;;;28.87;12.40;;;;;;;8.29;85.71;100729.13;5114730;28;20189;-70
2022/12/21 11:33:35;;;;;;;24.17;12.60;;;;;;;8.32;86.32;100712.91;5114971;28;20203;-70
2022/12/21 11:36:11;;;;;;;26.33;12.63;;;;;;;8.42;86.79;100723.91;5114598;28;20705;-70
2022/12/21 11:38:39;;;;;;;23.40;10.70;;;;;;;8.51;86.25;100713.50;5115217;28;20536;-70
2022/12/21 11:41:15;;;;;;;17.50;10.50;;;;;;;8.59;86.38;100713.00;5114465;28;20185;-70
2022/12/21 11:43:49;;;;;;;18.77;11.00;;;;;;;8.62;86.50;100726.19;5113619;28;20177;-70
2022/12/21 11:46:31;;;;;;;27.53;10.47;;;;;;;8.65;85.53;100730.47;5114733;28;20317;-70